GVQ weather

Genesee County Airport
Batavia, New York, United States

Public forecast

Using degrees Fahrenheit for public forecast. Weather courtesy of forecast.io.

Closest aviation weather report (METAR) to Genesee County Airport

Closest report is Greater Rochester International Airport, 22.3 nm (41.4 km) ENE. Retrieved 2020/07/05 11:54 UTC (23 minutes ago):

KROC 051154Z 25006KT 10SM FEW110 SCT280 19/14 A3001 RMK AO2 SLP163 T01940144 10194 20150 51009

Closest aviation forecast (TAF) to Genesee County Airport

Closest forecast is Greater Rochester International Airport, 22.3 nm (41.4 km) ENE. Retrieved 2020/07/05 12:22 UTC (0 seconds ago):

TAF KROC 051120Z 0512/0612 24004KT P6SM SKC FM051400 27008KT P6SM SCT250 FM052000 32009KT P6SM SCT250 FM060000 27004KT P6SM SCT250